sensor_id;sensor_type;location;lat;lon;timestamp;pressure;altitude;pressure_sealevel;temperature
67501;BMP180;54349;52.528;19.760;2023-08-12T00:53:12;101262.40;;;19.74
67501;BMP180;54349;52.528;19.760;2023-08-12T00:55:41;101259.40;;;19.08
67501;BMP180;54349;52.528;19.760;2023-08-12T00:58:10;101260.00;;;18.80
67501;BMP180;54349;52.528;19.760;2023-08-12T01:00:47;101258.00;;;19.08
67501;BMP180;54349;52.528;19.760;2023-08-12T01:03:18;101260.40;;;19.40
67501;BMP180;54349;52.528;19.760;2023-08-12T01:05:48;101255.60;;;19.70
67501;BMP180;54349;52.528;19.760;2023-08-12T01:08:17;101256.00;;;19.88
67501;BMP180;54349;52.528;19.760;2023-08-12T01:10:55;101254.00;;;19.90
67501;BMP180;54349;52.528;19.760;2023-08-12T01:13:33;101252.00;;;19.30
67501;BMP180;54349;52.528;19.760;2023-08-12T01:16:08;101251.60;;;18.74
67501;BMP180;54349;52.528;19.760;2023-08-12T01:18:49;101248.80;;;18.86
67501;BMP180;54349;52.528;19.760;2023-08-12T01:21:21;101252.60;;;19.20
67501;BMP180;54349;52.528;19.760;2023-08-12T01:23:50;101253.80;;;19.50
67501;BMP180;54349;52.528;19.760;2023-08-12T01:26:20;101258.20;;;19.76
67501;BMP180;54349;52.528;19.760;2023-08-12T01:28:48;101253.00;;;19.92
67501;BMP180;54349;52.528;19.760;2023-08-12T01:31:35;101255.80;;;19.44
67501;BMP180;54349;52.528;19.760;2023-08-12T01:34:50;101243.00;;;18.58
67501;BMP180;54349;52.528;19.760;2023-08-12T01:37:24;101241.80;;;18.50
67501;BMP180;54349;52.528;19.760;2023-08-12T01:40:02;101249.40;;;18.80
67501;BMP180;54349;52.528;19.760;2023-08-12T01:42:50;101250.80;;;19.18
67501;BMP180;54349;52.528;19.760;2023-08-12T01:45:21;101255.00;;;19.50
67501;BMP180;54349;52.528;19.760;2023-08-12T01:47:50;101257.00;;;19.70
67501;BMP180;54349;52.528;19.760;2023-08-12T01:50:23;101255.20;;;19.90
67501;BMP180;54349;52.528;19.760;2023-08-12T01:53:21;101258.20;;;19.26
67501;BMP180;54349;52.528;19.760;2023-08-12T01:55:52;101253.80;;;18.74
67501;BMP180;54349;52.528;19.760;2023-08-12T01:58:21;101253.60;;;18.66
67501;BMP180;54349;52.528;19.760;2023-08-12T02:00:50;101260.00;;;19.00
67501;BMP180;54349;52.528;19.760;2023-08-12T02:03:19;101263.60;;;19.30
67501;BMP180;54349;52.528;19.760;2023-08-12T02:06:22;101266.20;;;19.56
67501;BMP180;54349;52.528;19.760;2023-08-12T03:35:05;101251.60;;;19.20
67501;BMP180;54349;52.528;19.760;2023-08-12T03:37:34;101246.40;;;19.50
67501;BMP180;54349;52.528;19.760;2023-08-12T03:40:03;101244.00;;;19.70
67501;BMP180;54349;52.528;19.760;2023-08-12T03:43:05;101252.00;;;19.90
67501;BMP180;54349;52.528;19.760;2023-08-12T03:45:40;101250.00;;;19.96
67501;BMP180;54349;52.528;19.760;2023-08-12T03:48:10;101249.80;;;19.36
67501;BMP180;54349;52.528;19.760;2023-08-12T03:51:22;101251.60;;;19.08
67501;BMP180;54349;52.528;19.760;2023-08-12T06:21:35;101272.60;;;19.00
67501;BMP180;54349;52.528;19.760;2023-08-12T06:27:36;101279.00;;;19.60
67501;BMP180;54349;52.528;19.760;2023-08-12T06:30:12;101274.00;;;19.80
67501;BMP180;54349;52.528;19.760;2023-08-12T06:32:49;101272.00;;;19.90
67501;BMP180;54349;52.528;19.760;2023-08-12T06:35:21;101272.60;;;19.48
67501;BMP180;54349;52.528;19.760;2023-08-12T06:37:50;101267.80;;;19.00
67501;BMP180;54349;52.528;19.760;2023-08-12T07:33:42;101238.80;;;19.10
67501;BMP180;54349;52.528;19.760;2023-08-12T07:36:11;101235.60;;;18.80
67501;BMP180;54349;52.528;19.760;2023-08-12T07:38:46;101230.80;;;18.68
67501;BMP180;54349;52.528;19.760;2023-08-12T07:41:47;101234.80;;;18.94
67501;BMP180;54349;52.528;19.760;2023-08-12T07:44:56;101235.00;;;19.30
67501;BMP180;54349;52.528;19.760;2023-08-12T07:47:25;101234.40;;;19.60
67501;BMP180;54349;52.528;19.760;2023-08-12T07:49:56;101231.60;;;19.80
67501;BMP180;54349;52.528;19.760;2023-08-12T09:33:30;101171.20;;;19.70
67501;BMP180;54349;52.528;19.760;2023-08-12T09:35:58;101168.00;;;19.92
67501;BMP180;54349;52.528;19.760;2023-08-12T09:38:29;101159.20;;;19.82
67501;BMP180;54349;52.528;19.760;2023-08-12T09:40:57;101162.20;;;19.50
67501;BMP180;54349;52.528;19.760;2023-08-12T09:43:28;101157.60;;;19.22
67501;BMP180;54349;52.528;19.760;2023-08-12T09:45:57;101155.40;;;19.00
67501;BMP180;54349;52.528;19.760;2023-08-12T09:48:30;101148.40;;;18.90
67501;BMP180;54349;52.528;19.760;2023-08-12T11:18:13;101070.60;;;17.60
67501;BMP180;54349;52.528;19.760;2023-08-12T11:21:14;101065.80;;;17.60
67501;BMP180;54349;52.528;19.760;2023-08-12T11:23:44;101064.80;;;17.60
67501;BMP180;54349;52.528;19.760;2023-08-12T11:26:48;101064.60;;;17.60
67501;BMP180;54349;52.528;19.760;2023-08-12T11:29:17;101064.00;;;17.60
67501;BMP180;54349;52.528;19.760;2023-08-12T11:32:19;101061.60;;;17.60
67501;BMP180;54349;52.528;19.760;2023-08-12T11:35:31;101056.80;;;17.60
67501;BMP180;54349;52.528;19.760;2023-08-12T13:18:02;100964.80;;;19.60
67501;BMP180;54349;52.528;19.760;2023-08-12T13:20:32;100963.40;;;19.40
67501;BMP180;54349;52.528;19.760;2023-08-12T13:23:32;100963.00;;;19.20
67501;BMP180;54349;52.528;19.760;2023-08-12T13:26:03;100959.20;;;19.08
67501;BMP180;54349;52.528;19.760;2023-08-12T13:28:32;100957.20;;;18.92
67501;BMP180;54349;52.528;19.760;2023-08-12T13:31:14;100960.60;;;18.80
67501;BMP180;54349;52.528;19.760;2023-08-12T13:33:43;100959.80;;;18.70
67501;BMP180;54349;52.528;19.760;2023-08-12T14:24:12;100921.20;;;19.52
67501;BMP180;54349;52.528;19.760;2023-08-12T14:26:48;100917.60;;;19.40
67501;BMP180;54349;52.528;19.760;2023-08-12T14:29:30;100913.40;;;19.20
67501;BMP180;54349;52.528;19.760;2023-08-12T14:32:02;100911.20;;;19.06
67501;BMP180;54349;52.528;19.760;2023-08-12T14:34:30;100904.20;;;18.96
67501;BMP180;54349;52.528;19.760;2023-08-12T14:37:02;100901.40;;;18.80
67501;BMP180;54349;52.528;19.760;2023-08-12T14:39:49;100894.80;;;18.70
67501;BMP180;54349;52.528;19.760;2023-08-12T17:20:33;100796.60;;;18.60
67501;BMP180;54349;52.528;19.760;2023-08-12T17:23:03;100796.60;;;18.38
67501;BMP180;54349;52.528;19.760;2023-08-12T17:25:40;100800.80;;;18.20
67501;BMP180;54349;52.528;19.760;2023-08-12T17:28:20;100799.60;;;18.10
67501;BMP180;54349;52.528;19.760;2023-08-12T17:30:52;100802.20;;;18.18
67501;BMP180;54349;52.528;19.760;2023-08-12T17:34:27;100798.80;;;18.62
67501;BMP180;54349;52.528;19.760;2023-08-12T17:37:01;100797.00;;;19.20
67501;BMP180;54349;52.528;19.760;2023-08-12T17:39:32;100795.40;;;19.50
67501;BMP180;54349;52.528;19.760;2023-08-12T17:47:22;100790.80;;;19.26
67501;BMP180;54349;52.528;19.760;2023-08-12T17:49:51;100784.60;;;19.10
67501;BMP180;54349;52.528;19.760;2023-08-12T17:52:20;100782.20;;;18.88
67501;BMP180;54349;52.528;19.760;2023-08-12T17:54:54;100780.40;;;18.70
67501;BMP180;54349;52.528;19.760;2023-08-12T17:57:30;100781.20;;;18.50
67501;BMP180;54349;52.528;19.760;2023-08-12T17:59:59;100780.00;;;18.50
67501;BMP180;54349;52.528;19.760;2023-08-12T18:02:31;100779.60;;;18.86
67501;BMP180;54349;52.528;19.760;2023-08-12T18:40:00;100804.80;;;19.40
67501;BMP180;54349;52.528;19.760;2023-08-12T18:42:33;100813.00;;;19.60
67501;BMP180;54349;52.528;19.760;2023-08-12T18:45:18;100810.80;;;19.40
67501;BMP180;54349;52.528;19.760;2023-08-12T18:47:47;100813.60;;;19.20
67501;BMP180;54349;52.528;19.760;2023-08-12T18:50:51;100810.00;;;18.96
67501;BMP180;54349;52.528;19.760;2023-08-12T18:53:31;100811.60;;;18.70
67501;BMP180;54349;52.528;19.760;2023-08-12T18:56:05;100810.60;;;18.46
67501;BMP180;54349;52.528;19.760;2023-08-12T19:33:33;100816.20;;;18.20
67501;BMP180;54349;52.528;19.760;2023-08-12T19:36:03;100815.40;;;18.54
67501;BMP180;54349;52.528;19.760;2023-08-12T19:38:42;100812.20;;;18.92
67501;BMP180;54349;52.528;19.760;2023-08-12T19:41:29;100815.00;;;19.30
67501;BMP180;54349;52.528;19.760;2023-08-12T19:43:59;100813.80;;;19.60
67501;BMP180;54349;52.528;19.760;2023-08-12T19:46:27;100809.20;;;19.74
67501;BMP180;54349;52.528;19.760;2023-08-12T19:49:32;100810.00;;;19.40
67501;BMP180;54349;52.528;19.760;2023-08-12T21:40:04;100772.80;;;19.68
67501;BMP180;54349;52.528;19.760;2023-08-12T21:42:41;100770.00;;;19.56
67501;BMP180;54349;52.528;19.760;2023-08-12T21:45:30;100767.40;;;19.18
67501;BMP180;54349;52.528;19.760;2023-08-12T21:48:01;100765.40;;;18.90
67501;BMP180;54349;52.528;19.760;2023-08-12T21:51:04;100761.00;;;18.60
67501;BMP180;54349;52.528;19.760;2023-08-12T21:53:36;100756.40;;;18.30
67501;BMP180;54349;52.528;19.760;2023-08-12T21:56:11;100754.20;;;18.40
67501;BMP180;54349;52.528;19.760;2023-08-12T22:49:18;100730.20;;;18.60
67501;BMP180;54349;52.528;19.760;2023-08-12T22:51:50;100726.00;;;18.30
67501;BMP180;54349;52.528;19.760;2023-08-12T22:54:20;100725.20;;;18.10
67501;BMP180;54349;52.528;19.760;2023-08-12T22:56:48;100727.40;;;17.90
67501;BMP180;54349;52.528;19.760;2023-08-12T23:00:16;100722.40;;;18.40
67501;BMP180;54349;52.528;19.760;2023-08-12T23:02:59;100722.40;;;18.60
67501;BMP180;54349;52.528;19.760;2023-08-12T23:05:32;100726.60;;;19.02
67501;BMP180;54349;52.528;19.760;2023-08-12T23:08:00;100727.80;;;19.40
67501;BMP180;54349;52.528;19.760;2023-08-12T23:10:49;100727.60;;;19.60
67501;BMP180;54349;52.528;19.760;2023-08-12T23:13:17;100722.20;;;19.38
67501;BMP180;54349;52.528;19.760;2023-08-12T23:17:00;100719.20;;;19.00
